Time,TemperatureF,DewpointF,PressureIn,WindDirection,WindDirectionDegrees,WindSpeedMPH,WindSpeedGustMPH,Humidity,HourlyPrecipIn,Conditions,Clouds,dailyrainin,SoftwareType,DateUTC
2013-09-20 00:01:00,55.4,11.3,27.58,NE,46,0.0,0.0,17,0.00,,---,0.00,VWS V14.01,2013-09-20 07:01:00,
2013-09-20 00:06:00,55.2,12.5,27.58,NNE,12,0.0,0.0,18,0.00,,---,0.00,VWS V14.01,2013-09-20 07:06:00,
2013-09-20 00:11:00,55.0,14.7,27.58,NNE,19,0.0,0.0,20,0.00,,---,0.00,VWS V14.01,2013-09-20 07:11:00,
2013-09-20 00:16:00,54.9,14.6,27.58,NNE,18,0.0,0.0,20,0.00,,---,0.00,VWS V14.01,2013-09-20 07:16:00,
2013-09-20 00:21:00,54.5,14.3,27.58,North,0,0.0,0.0,20,0.00,,---,0.00,VWS V14.01,2013-09-20 07:21:00,
2013-09-20 00:26:00,54.3,14.1,27.58,NE,34,0.0,0.0,20,0.00,,---,0.00,VWS V14.01,2013-09-20 07:26:00,
2013-09-20 00:31:00,54.3,14.1,27.58,North,11,0.0,0.0,20,0.00,,---,0.00,VWS V14.01,2013-09-20 07:31:00,
2013-09-20 00:36:00,54.3,14.1,27.58,NE,41,0.0,0.0,20,0.00,,---,0.00,VWS V14.01,2013-09-20 07:36:00,
2013-09-20 00:41:00,54.1,17.2,27.58,North,357,0.0,0.0,23,0.00,,---,0.00,VWS V14.01,2013-09-20 07:41:00,
2013-09-20 00:46:00,54.3,17.3,27.55,North,357,0.0,0.0,23,0.00,,---,0.00,VWS V14.01,2013-09-20 07:46:00,
2013-09-20 00:51:00,54.1,17.2,27.55,ENE,61,0.0,0.0,23,0.00,,---,0.00,VWS V14.01,2013-09-20 07:51:00,
2013-09-20 00:56:00,54.3,17.3,27.55,NE,35,0.0,0.0,23,0.00,,---,0.00,VWS V14.01,2013-09-20 07:56:00,
2013-09-20 01:01:00,54.5,14.3,27.55,North,10,0.0,0.0,20,0.00,,---,0.00,VWS V14.01,2013-09-20 08:01:00,
2013-09-20 01:06:00,54.5,14.3,27.55,NNE,33,0.0,0.0,20,0.00,,---,0.00,VWS V14.01,2013-09-20 08:06:00,
2013-09-20 01:11:00,54.5,14.3,27.55,NNE,27,0.0,0.0,20,0.00,,---,0.00,VWS V14.01,2013-09-20 08:11:00,
2013-09-20 01:16:00,54.5,14.3,27.55,NE,44,0.0,0.0,20,0.00,,---,0.00,VWS V14.01,2013-09-20 08:16:00,
2013-09-20 01:21:00,54.5,14.3,27.55,NE,48,0.0,0.0,20,0.00,,---,0.00,VWS V14.01,2013-09-20 08:21:00,
2013-09-20 01:26:00,54.5,14.3,27.55,NE,36,0.0,0.0,20,0.00,,---,0.00,VWS V14.01,2013-09-20 08:26:00,
2013-09-20 01:31:00,54.5,14.3,27.55,NE,50,0.0,0.0,20,0.00,,---,0.00,VWS V14.01,2013-09-20 08:31:00,
2013-09-20 01:36:00,54.3,17.3,27.55,NNE,18,0.0,0.0,23,0.00,,---,0.00,VWS V14.01,2013-09-20 08:36:00,
2013-09-20 01:41:00,54.3,17.3,27.55,NNE,19,0.0,0.0,23,0.00,,---,0.00,VWS V14.01,2013-09-20 08:41:00,
2013-09-20 01:46:00,54.0,19.0,27.55,ENE,64,0.0,0.0,25,0.00,,---,0.00,VWS V14.01,2013-09-20 08:46:00,
2013-09-20 01:51:00,54.0,19.9,27.55,North,357,0.0,0.0,26,0.00,,---,0.00,VWS V14.01,2013-09-20 08:51:00,
2013-09-20 01:56:00,54.0,19.9,27.55,North,11,0.0,0.0,26,0.00,,---,0.00,VWS V14.01,2013-09-20 08:56:00,
2013-09-20 02:01:00,54.1,20.0,27.55,North,357,0.0,0.0,26,0.00,,---,0.00,VWS V14.01,2013-09-20 09:01:00,
2013-09-20 02:06:00,54.1,20.0,27.55,North,357,0.0,0.0,26,0.00,,---,0.00,VWS V14.01,2013-09-20 09:06:00,
2013-09-20 02:11:00,54.0,19.9,27.55,North,6,0.0,0.0,26,0.00,,---,0.00,VWS V14.01,2013-09-20 09:11:00,
2013-09-20 02:16:00,54.0,19.9,27.55,NE,56,0.0,0.0,26,0.00,,---,0.00,VWS V14.01,2013-09-20 09:16:00,
2013-09-20 02:21:00,54.1,19.1,27.55,North,7,0.0,0.0,25,0.00,,---,0.00,VWS V14.01,2013-09-20 09:21:00,
2013-09-20 02:26:00,54.0,19.0,27.55,NNE,19,0.0,0.0,25,0.00,,---,0.00,VWS V14.01,2013-09-20 09:26:00,
2013-09-20 02:31:00,53.8,18.8,27.55,NNE,25,0.0,0.0,25,0.00,,---,0.00,VWS V14.01,2013-09-20 09:31:00,
2013-09-20 02:36:00,53.4,19.4,27.55,North,0,0.0,0.0,26,0.00,,---,0.00,VWS V14.01,2013-09-20 09:36:00,
2013-09-20 02:41:00,53.2,19.3,27.55,NNE,27,0.0,0.0,26,0.00,,---,0.00,VWS V14.01,2013-09-20 09:41:00,
2013-09-20 02:46:00,53.1,19.1,27.55,North,3,0.0,0.0,26,0.00,,---,0.00,VWS V14.01,2013-09-20 09:46:00,
2013-09-20 02:51:00,52.9,19.8,27.55,NNE,14,0.0,0.0,27,0.00,,---,0.00,VWS V14.01,2013-09-20 09:51:00,
2013-09-20 02:56:00,52.9,19.0,27.55,ENE,61,0.0,0.0,26,0.00,,---,0.00,VWS V14.01,2013-09-20 09:56:00,
2013-09-20 03:01:00,53.1,19.1,27.52,NNE,15,0.0,0.0,26,0.00,,---,0.00,VWS V14.01,2013-09-20 10:01:00,
2013-09-20 03:06:00,53.1,19.1,27.52,North,0,5.8,6.3,26,0.00,,---,0.00,VWS V14.01,2013-09-20 10:06:00,
2013-09-20 03:11:00,53.2,19.3,27.52,North,357,5.8,5.8,26,0.00,,---,0.00,VWS V14.01,2013-09-20 10:11:00,
2013-09-20 03:16:00,53.2,19.3,27.52,North,353,6.7,6.7,26,0.00,,---,0.00,VWS V14.01,2013-09-20 10:16:00,
2013-09-20 03:21:00,53.4,19.4,27.52,NE,39,3.6,4.0,26,0.00,,---,0.00,VWS V14.01,2013-09-20 10:21:00,
2013-09-20 03:26:00,53.2,19.3,27.52,NE,41,5.4,6.3,26,0.00,,---,0.00,VWS V14.01,2013-09-20 10:26:00,
2013-09-20 03:31:00,53.2,19.3,27.52,NNE,28,4.9,4.9,26,0.00,,---,0.00,VWS V14.01,2013-09-20 10:31:00,
2013-09-20 03:36:00,53.1,19.1,27.52,NNW,342,6.3,6.3,26,0.00,,---,0.00,VWS V14.01,2013-09-20 10:36:00,
2013-09-20 03:41:00,52.9,19.0,27.52,NNE,21,6.3,9.6,26,0.00,,---,0.00,VWS V14.01,2013-09-20 10:41:00,
2013-09-20 03:46:00,52.7,18.8,27.52,NE,44,5.8,6.7,26,0.00,,---,0.00,VWS V14.01,2013-09-20 10:46:00,
2013-09-20 03:51:00,52.5,18.6,27.52,NNE,22,3.6,5.4,26,0.00,,---,0.00,VWS V14.01,2013-09-20 10:51:00,
2013-09-20 03:56:00,52.5,18.6,27.52,NE,41,6.3,6.3,26,0.00,,---,0.00,VWS V14.01,2013-09-20 10:56:00,
2013-09-20 04:01:00,52.3,18.5,27.52,NE,51,4.0,4.0,26,0.00,,---,0.00,VWS V14.01,2013-09-20 11:01:00,
2013-09-20 04:06:00,52.0,19.1,27.52,NNE,29,3.6,3.6,27,0.00,,---,0.00,VWS V14.01,2013-09-20 11:06:00,
2013-09-20 04:11:00,52.0,19.1,27.52,NNE,12,3.6,7.6,27,0.00,,---,0.00,VWS V14.01,2013-09-20 11:11:00,
2013-09-20 04:16:00,52.0,19.1,27.52,North,353,4.9,4.9,27,0.00,,---,0.00,VWS V14.01,2013-09-20 11:16:00,
2013-09-20 04:21:00,52.0,19.1,27.52,North,9,5.8,5.8,27,0.00,,---,0.00,VWS V14.01,2013-09-20 11:21:00,
2013-09-20 04:26:00,52.2,19.2,27.52,NNE,32,4.0,4.9,27,0.00,,---,0.00,VWS V14.01,2013-09-20 11:26:00,
2013-09-20 04:31:00,52.2,19.2,27.52,North,7,4.0,4.9,27,0.00,,---,0.00,VWS V14.01,2013-09-20 11:31:00,
2013-09-20 04:36:00,52.0,19.1,27.52,NNW,339,6.3,6.3,27,0.00,,---,0.00,VWS V14.01,2013-09-20 11:36:00,
2013-09-20 04:41:00,51.8,18.9,27.52,North,357,5.4,5.4,27,0.00,,---,0.00,VWS V14.01,2013-09-20 11:41:00,
2013-09-20 04:46:00,51.6,19.6,27.52,North,8,2.7,6.3,28,0.00,,---,0.00,VWS V14.01,2013-09-20 11:46:00,
2013-09-20 04:51:00,51.4,19.4,27.52,NNW,348,4.0,4.0,28,0.00,,---,0.00,VWS V14.01,2013-09-20 11:51:00,
2013-09-20 04:56:00,51.4,19.4,27.52,NNE,15,4.9,5.8,28,0.00,,---,0.00,VWS V14.01,2013-09-20 11:56:00,
2013-09-20 05:01:00,51.4,19.4,27.52,NNW,348,4.0,4.0,28,0.00,,---,0.00,VWS V14.01,2013-09-20 12:01:00,
2013-09-20 05:06:00,51.3,19.3,27.52,North,0,2.7,3.6,28,0.00,,---,0.00,VWS V14.01,2013-09-20 12:06:00,
2013-09-20 05:11:00,50.9,19.8,27.52,North,357,2.7,3.6,29,0.00,,---,0.00,VWS V14.01,2013-09-20 12:11:00,
2013-09-20 05:16:00,50.7,19.6,27.52,NNW,348,4.0,4.0,29,0.00,,---,0.00,VWS V14.01,2013-09-20 12:16:00,
2013-09-20 05:21:00,50.4,19.3,27.52,North,357,0.0,0.0,29,0.00,,---,0.00,VWS V14.01,2013-09-20 12:21:00,
2013-09-20 05:26:00,50.4,19.3,27.52,NNE,31,0.0,0.0,29,0.00,,---,0.00,VWS V14.01,2013-09-20 12:26:00,
2013-09-20 05:31:00,50.4,20.1,27.52,North,3,0.0,0.0,30,0.00,,---,0.00,VWS V14.01,2013-09-20 12:31:00,
2013-09-20 05:36:00,50.4,19.3,27.52,NNE,20,0.0,0.0,29,0.00,,---,0.00,VWS V14.01,2013-09-20 12:36:00,
2013-09-20 05:41:00,50.4,19.3,27.52,North,353,0.0,0.0,29,0.00,,---,0.00,VWS V14.01,2013-09-20 12:41:00,
2013-09-20 05:46:00,50.0,19.0,27.52,North,353,0.0,0.0,29,0.00,,---,0.00,VWS V14.01,2013-09-20 12:46:00,
2013-09-20 05:51:00,49.8,18.9,27.52,North,353,0.0,0.0,29,0.00,,---,0.00,VWS V14.01,2013-09-20 12:51:00,
2013-09-20 05:56:00,49.6,18.7,27.52,North,353,0.0,0.0,29,0.00,,---,0.00,VWS V14.01,2013-09-20 12:56:00,
2013-09-20 06:01:00,49.5,19.3,27.52,North,0,0.0,0.0,30,0.00,,---,0.00,VWS V14.01,2013-09-20 13:01:00,
2013-09-20 06:06:00,49.5,20.1,27.52,NNE,30,0.0,0.0,31,0.00,,---,0.00,VWS V14.01,2013-09-20 13:06:00,
2013-09-20 06:11:00,49.6,19.5,27.52,NE,41,0.0,0.0,30,0.00,,---,0.00,VWS V14.01,2013-09-20 13:11:00,
2013-09-20 06:16:00,49.1,19.0,27.49,NE,41,0.0,0.0,30,0.00,,---,0.00,VWS V14.01,2013-09-20 13:16:00,
2013-09-20 06:21:00,48.6,18.5,27.49,NE,41,0.0,0.0,30,0.00,,---,0.00,VWS V14.01,2013-09-20 13:21:00,
2013-09-20 06:26:00,47.8,18.7,27.49,NE,41,0.0,0.0,31,0.00,,---,0.00,VWS V14.01,2013-09-20 13:26:00,
2013-09-20 06:31:00,47.8,21.5,27.49,North,0,0.0,0.0,35,0.00,,---,0.00,VWS V14.01,2013-09-20 13:31:00,
2013-09-20 06:36:00,48.6,23.5,27.49,North,4,0.0,0.0,37,0.00,,---,0.00,VWS V14.01,2013-09-20 13:36:00,
2013-09-20 06:41:00,49.5,23.6,27.49,NE,39,0.0,0.0,36,0.00,,---,0.00,VWS V14.01,2013-09-20 13:41:00,
2013-09-20 06:46:00,50.0,21.3,27.49,NNE,29,0.0,0.0,32,0.00,,---,0.00,VWS V14.01,2013-09-20 13:46:00,
2013-09-20 06:51:00,50.2,20.7,27.49,North,353,0.0,0.0,31,0.00,,---,0.00,VWS V14.01,2013-09-20 13:51:00,
2013-09-20 06:56:00,50.2,20.7,27.49,NNW,343,0.0,0.0,31,0.00,,---,0.00,VWS V14.01,2013-09-20 13:56:00,
2013-09-20 07:01:00,50.4,20.1,27.49,NNE,25,0.0,0.0,30,0.00,,---,0.00,VWS V14.01,2013-09-20 14:01:00,
2013-09-20 07:06:00,50.5,20.3,27.49,North,3,0.0,0.0,30,0.00,,---,0.00,VWS V14.01,2013-09-20 14:06:00,
2013-09-20 07:11:00,50.5,20.3,27.49,North,357,0.0,0.0,30,0.00,,---,0.00,VWS V14.01,2013-09-20 14:11:00,
2013-09-20 07:16:00,50.5,19.5,27.49,ENE,58,0.0,0.0,29,0.00,,---,0.00,VWS V14.01,2013-09-20 14:16:00,
2013-09-20 07:21:00,50.5,19.5,27.49,NE,51,0.0,0.0,29,0.00,,---,0.00,VWS V14.01,2013-09-20 14:21:00,
2013-09-20 07:26:00,50.9,19.8,27.49,ENE,58,0.0,0.0,29,0.00,,---,0.00,VWS V14.01,2013-09-20 14:26:00,
2013-09-20 07:31:00,51.4,19.4,27.49,NNE,21,0.0,0.0,28,0.00,,---,0.00,VWS V14.01,2013-09-20 14:31:00,
2013-09-20 07:36:00,51.6,19.6,27.49,ENE,64,0.0,0.0,28,0.00,,---,0.00,VWS V14.01,2013-09-20 14:36:00,
2013-09-20 07:41:00,51.8,18.9,27.49,NE,56,0.0,0.0,27,0.00,,---,0.00,VWS V14.01,2013-09-20 14:41:00,
2013-09-20 07:46:00,52.3,19.4,27.49,NE,42,0.0,0.0,27,0.00,,---,0.00,VWS V14.01,2013-09-20 14:46:00,
2013-09-20 07:51:00,53.4,20.3,27.49,NE,42,0.0,0.0,27,0.00,,---,0.00,VWS V14.01,2013-09-20 14:51:00,
2013-09-20 07:56:00,54.3,20.2,27.49,NE,38,0.0,0.0,26,0.00,,---,0.00,VWS V14.01,2013-09-20 14:56:00,
2013-09-20 08:01:00,54.9,19.7,27.49,North,2,0.0,0.0,25,0.00,,---,0.00,VWS V14.01,2013-09-20 15:01:00,
2013-09-20 08:06:00,55.4,15.0,27.49,NE,54,0.0,0.0,20,0.00,,---,0.00,VWS V14.01,2013-09-20 15:06:00,
2013-09-20 08:11:00,55.6,15.2,27.49,North,0,0.0,0.0,20,0.00,,---,0.00,VWS V14.01,2013-09-20 15:11:00,
2013-09-20 08:16:00,55.8,15.3,27.49,NNE,30,0.0,0.0,20,0.00,,---,0.00,VWS V14.01,2013-09-20 15:16:00,
2013-09-20 08:21:00,56.1,15.6,27.49,NNE,33,0.0,0.0,20,0.00,,---,0.00,VWS V14.01,2013-09-20 15:21:00,
2013-09-20 08:26:00,56.3,15.8,27.49,NNE,32,0.0,0.0,20,0.00,,---,0.00,VWS V14.01,2013-09-20 15:26:00,
2013-09-20 08:31:00,56.3,15.8,27.49,North,8,0.0,0.0,20,0.00,,---,0.00,VWS V14.01,2013-09-20 15:31:00,
2013-09-20 08:36:00,56.3,12.1,27.49,North,353,0.0,0.0,17,0.00,,---,0.00,VWS V14.01,2013-09-20 15:36:00,
2013-09-20 08:41:00,56.7,12.4,27.49,North,357,0.0,0.0,17,0.00,,---,0.00,VWS V14.01,2013-09-20 15:41:00,
2013-09-20 08:46:00,56.8,12.5,27.49,NNE,31,0.0,0.0,17,0.00,,---,0.00,VWS V14.01,2013-09-20 15:46:00,
2013-09-20 08:51:00,57.2,12.8,27.49,NE,37,0.0,0.0,17,0.00,,---,0.00,VWS V14.01,2013-09-20 15:51:00,
2013-09-20 08:56:00,57.6,13.1,27.49,NNE,17,0.0,0.0,17,0.00,,---,0.00,VWS V14.01,2013-09-20 15:56:00,
2013-09-20 09:01:00,57.9,13.4,27.46,North,353,0.0,0.0,17,0.00,,---,0.00,VWS V14.01,2013-09-20 16:01:00,
2013-09-20 09:06:00,58.1,13.5,27.46,NNE,17,0.0,0.0,17,0.00,,---,0.00,VWS V14.01,2013-09-20 16:06:00,
2013-09-20 09:11:00,58.5,13.8,27.46,NE,52,0.0,0.0,17,0.00,,---,0.00,VWS V14.01,2013-09-20 16:11:00,
2013-09-20 09:16:00,59.0,14.3,27.46,NNE,29,0.0,0.0,17,0.00,,---,0.00,VWS V14.01,2013-09-20 16:16:00,
2013-09-20 09:21:00,59.2,14.4,27.46,NNE,33,0.0,0.0,17,0.00,,---,0.00,VWS V14.01,2013-09-20 16:21:00,
2013-09-20 09:26:00,59.4,14.6,27.46,NNE,33,0.0,0.0,17,0.00,,---,0.00,VWS V14.01,2013-09-20 16:26:00,
2013-09-20 09:31:00,59.9,15.0,27.46,NNE,19,0.0,0.0,17,0.00,,---,0.00,VWS V14.01,2013-09-20 16:31:00,
2013-09-20 09:36:00,60.1,15.1,27.46,North,9,0.0,0.0,17,0.00,,---,0.00,VWS V14.01,2013-09-20 16:36:00,
2013-09-20 09:41:00,60.6,15.6,27.46,North,5,0.0,0.0,17,0.00,,---,0.00,VWS V14.01,2013-09-20 16:41:00,
2013-09-20 09:46:00,60.8,14.4,27.46,North,349,0.0,0.0,16,0.00,,---,0.00,VWS V14.01,2013-09-20 16:46:00,
2013-09-20 09:51:00,61.0,14.5,27.46,NNW,344,0.0,0.0,16,0.00,,---,0.00,VWS V14.01,2013-09-20 16:51:00,
2013-09-20 09:56:00,61.3,14.8,27.46,NNE,20,0.0,0.0,16,0.00,,---,0.00,VWS V14.01,2013-09-20 16:56:00,
2013-09-20 10:01:00,61.5,14.9,27.46,NNE,29,0.0,0.0,16,0.00,,---,0.00,VWS V14.01,2013-09-20 17:01:00,
2013-09-20 10:06:00,61.7,15.1,27.46,North,8,0.0,0.0,16,0.00,,---,0.00,VWS V14.01,2013-09-20 17:06:00,
2013-09-20 10:10:00,61.9,15.2,27.46,North,0,0.0,0.0,16,0.00,,---,0.00,VWS V14.01,2013-09-20 17:10:00,
2013-09-20 10:15:00,62.2,15.5,27.46,NNE,19,0.0,0.0,16,0.00,,---,0.00,VWS V14.01,2013-09-20 17:15:00,
2013-09-20 10:20:00,62.4,15.7,27.46,NE,39,0.0,0.0,16,0.00,,---,0.00,VWS V14.01,2013-09-20 17:20:00,
2013-09-20 10:25:00,62.8,15.9,27.46,North,353,0.0,0.0,16,0.00,,---,0.00,VWS V14.01,2013-09-20 17:25:00,
2013-09-20 10:30:00,63.5,16.5,27.46,NNE,21,0.0,0.0,16,0.00,,---,0.00,VWS V14.01,2013-09-20 17:30:00,
2013-09-20 10:35:00,64.0,17.0,27.46,NE,45,0.0,0.0,16,0.00,,---,0.00,VWS V14.01,2013-09-20 17:35:00,
2013-09-20 10:40:00,64.2,17.1,27.46,NNE,32,0.0,0.0,16,0.00,,---,0.00,VWS V14.01,2013-09-20 17:40:00,
2013-09-20 10:45:00,64.2,17.1,27.43,NNW,335,0.0,0.0,16,0.00,,---,0.00,VWS V14.01,2013-09-20 17:45:00,
2013-09-20 10:50:00,64.2,17.1,27.43,NNW,343,0.0,0.0,16,0.00,,---,0.00,VWS V14.01,2013-09-20 17:50:00,
2013-09-20 10:55:00,64.4,15.8,27.43,North,353,0.0,0.0,15,0.00,,---,0.00,VWS V14.01,2013-09-20 17:55:00,
2013-09-20 11:00:00,64.8,16.1,27.43,North,349,0.0,0.0,15,0.00,,---,0.00,VWS V14.01,2013-09-20 18:00:00,
2013-09-20 11:05:00,65.1,16.4,27.43,NNW,340,0.0,0.0,15,0.00,,---,0.00,VWS V14.01,2013-09-20 18:05:00,
2013-09-20 11:10:00,65.5,16.6,27.43,North,353,0.0,0.0,15,0.00,,---,0.00,VWS V14.01,2013-09-20 18:10:00,
2013-09-20 11:15:00,66.0,17.1,27.43,NNW,344,0.0,0.0,15,0.00,,---,0.00,VWS V14.01,2013-09-20 18:15:00,
2013-09-20 11:20:00,66.6,17.5,27.43,NNE,17,0.0,0.0,15,0.00,,---,0.00,VWS V14.01,2013-09-20 18:20:00,
2013-09-20 11:25:00,66.9,17.8,27.43,North,0,5.8,6.3,15,0.00,,---,0.00,VWS V14.01,2013-09-20 18:25:00,
2013-09-20 11:30:00,67.3,18.1,27.43,North,357,5.8,8.7,15,0.00,,---,0.00,VWS V14.01,2013-09-20 18:30:00,
2013-09-20 11:35:00,67.5,13.1,27.43,North,353,8.1,10.5,12,0.00,,---,0.00,VWS V14.01,2013-09-20 18:35:00,
2013-09-20 11:40:00,67.5,13.1,27.43,NNW,328,11.0,11.0,12,0.00,,---,0.00,VWS V14.01,2013-09-20 18:40:00,
2013-09-20 11:45:00,67.8,13.4,27.40,NNW,336,14.1,14.1,12,0.00,,---,0.00,VWS V14.01,2013-09-20 18:45:00,
2013-09-20 11:50:00,68.0,18.7,27.40,North,353,10.1,10.1,15,0.00,,---,0.00,VWS V14.01,2013-09-20 18:50:00,
2013-09-20 11:55:00,68.7,19.2,27.40,North,357,10.1,10.1,15,0.00,,---,0.00,VWS V14.01,2013-09-20 18:55:00,
2013-09-20 12:00:00,69.1,19.5,27.40,North,350,10.1,12.3,15,0.00,,---,0.00,VWS V14.01,2013-09-20 19:00:00,
2013-09-20 12:05:00,69.4,19.8,27.40,North,11,5.4,10.1,15,0.00,,---,0.00,VWS V14.01,2013-09-20 19:05:00,
2013-09-20 12:10:00,69.8,18.5,27.40,North,353,8.1,13.2,14,0.00,,---,0.00,VWS V14.01,2013-09-20 19:10:00,
2013-09-20 12:15:00,70.3,18.9,27.40,North,8,8.1,11.0,14,0.00,,---,0.00,VWS V14.01,2013-09-20 19:15:00,
2013-09-20 12:20:00,70.3,18.9,27.40,NNE,25,5.4,6.3,14,0.00,,---,0.00,VWS V14.01,2013-09-20 19:20:00,
2013-09-20 12:25:00,70.9,19.4,27.40,NE,56,5.4,8.7,14,0.00,,---,0.00,VWS V14.01,2013-09-20 19:25:00,
2013-09-20 12:30:00,71.2,19.6,27.40,NNE,16,6.3,6.3,14,0.00,,---,0.00,VWS V14.01,2013-09-20 19:30:00,
2013-09-20 12:35:00,71.6,19.9,27.40,North,11,0.0,0.0,14,0.00,,---,0.00,VWS V14.01,2013-09-20 19:35:00,
2013-09-20 12:40:00,71.8,20.1,27.40,North,357,0.0,0.0,14,0.00,,---,0.00,VWS V14.01,2013-09-20 19:40:00,
2013-09-20 12:45:00,72.0,20.2,27.37,North,0,0.0,0.0,14,0.00,,---,0.00,VWS V14.01,2013-09-20 19:45:00,
2013-09-20 12:50:00,72.3,20.5,27.37,North,353,0.0,0.0,14,0.00,,---,0.00,VWS V14.01,2013-09-20 19:50:00,
2013-09-20 12:55:00,72.7,20.8,27.37,North,357,0.0,0.0,14,0.00,,---,0.00,VWS V14.01,2013-09-20 19:55:00,
2013-09-20 13:00:00,72.9,20.9,27.37,North,350,0.0,0.0,14,0.00,,---,0.00,VWS V14.01,2013-09-20 20:00:00,
2013-09-20 13:05:00,73.0,21.1,27.37,NNE,18,0.0,0.0,14,0.00,,---,0.00,VWS V14.01,2013-09-20 20:05:00,
2013-09-20 13:10:00,73.4,19.6,27.37,NNE,15,0.0,0.0,13,0.00,,---,0.00,VWS V14.01,2013-09-20 20:10:00,
2013-09-20 13:15:00,73.4,19.6,27.37,North,3,0.0,0.0,13,0.00,,---,0.00,VWS V14.01,2013-09-20 20:15:00,
2013-09-20 13:20:00,73.8,19.9,27.37,NW,321,0.0,0.0,13,0.00,,---,0.00,VWS V14.01,2013-09-20 20:20:00,
2013-09-20 13:25:00,73.9,20.0,27.37,NNE,27,0.0,0.0,13,0.00,,---,0.00,VWS V14.01,2013-09-20 20:25:00,
2013-09-20 13:30:00,74.5,20.5,27.34,NE,42,0.0,0.0,13,0.00,,---,0.00,VWS V14.01,2013-09-20 20:30:00,
2013-09-20 13:35:00,74.8,20.7,27.34,North,349,0.0,0.0,13,0.00,,---,0.00,VWS V14.01,2013-09-20 20:35:00,
2013-09-20 13:40:00,74.7,20.6,27.34,North,2,0.0,0.0,13,0.00,,---,0.00,VWS V14.01,2013-09-20 20:40:00,
2013-09-20 13:45:00,75.0,20.9,27.34,North,2,0.0,0.0,13,0.00,,---,0.00,VWS V14.01,2013-09-20 20:45:00,
2013-09-20 13:50:00,75.4,21.2,27.34,North,0,0.0,0.0,13,0.00,,---,0.00,VWS V14.01,2013-09-20 20:50:00,
2013-09-20 13:55:00,75.2,21.0,27.34,NNE,24,0.0,0.0,13,0.00,,---,0.00,VWS V14.01,2013-09-20 20:55:00,
2013-09-20 14:00:00,75.4,21.2,27.34,NNW,344,0.0,0.0,13,0.00,,---,0.00,VWS V14.01,2013-09-20 21:00:00,
2013-09-20 14:05:00,75.7,21.5,27.34,NNE,24,0.0,0.0,13,0.00,,---,0.00,VWS V14.01,2013-09-20 21:05:00,
2013-09-20 14:10:00,75.9,21.6,27.34,NE,56,0.0,0.0,13,0.00,,---,0.00,VWS V14.01,2013-09-20 21:10:00,
2013-09-20 14:15:00,76.3,21.9,27.34,NNW,341,0.0,0.0,13,0.00,,---,0.00,VWS V14.01,2013-09-20 21:15:00,
2013-09-20 14:20:00,76.5,22.0,27.34,NNE,31,0.0,0.0,13,0.00,,---,0.00,VWS V14.01,2013-09-20 21:20:00,
2013-09-20 14:25:00,76.8,22.3,27.34,NNW,346,0.0,0.0,13,0.00,,---,0.00,VWS V14.01,2013-09-20 21:25:00,
2013-09-20 14:30:00,77.2,22.6,27.32,NNE,29,0.0,0.0,13,0.00,,---,0.00,VWS V14.01,2013-09-20 21:30:00,
2013-09-20 14:35:00,77.2,22.6,27.32,NE,46,0.0,0.0,13,0.00,,---,0.00,VWS V14.01,2013-09-20 21:35:00,
2013-09-20 14:40:00,77.4,22.7,27.32,NE,46,0.0,0.0,13,0.00,,---,0.00,VWS V14.01,2013-09-20 21:40:00,
2013-09-20 14:45:00,77.0,22.4,27.32,NNW,329,0.0,0.0,13,0.00,,---,0.00,VWS V14.01,2013-09-20 21:45:00,
2013-09-20 14:50:00,76.6,22.1,27.32,NNE,29,0.0,0.0,13,0.00,,---,0.00,VWS V14.01,2013-09-20 21:50:00,
2013-09-20 14:55:00,77.0,22.4,27.32,NNW,343,0.0,0.0,13,0.00,,---,0.00,VWS V14.01,2013-09-20 21:55:00,
2013-09-20 15:00:00,77.2,22.6,27.32,North,357,0.0,0.0,13,0.00,,---,0.00,VWS V14.01,2013-09-20 22:00:00,
2013-09-20 15:05:00,77.5,22.9,27.32,NNW,345,0.0,0.0,13,0.00,,---,0.00,VWS V14.01,2013-09-20 22:05:00,
2013-09-20 15:10:00,77.9,23.1,27.32,NNW,333,0.0,0.0,13,0.00,,---,0.00,VWS V14.01,2013-09-20 22:10:00,
2013-09-20 15:15:00,78.1,23.3,27.32,North,0,0.0,0.0,13,0.00,,---,0.00,VWS V14.01,2013-09-20 22:15:00,
2013-09-20 15:20:00,78.3,23.4,27.32,North,0,0.0,0.0,13,0.00,,---,0.00,VWS V14.01,2013-09-20 22:20:00,
2013-09-20 15:25:00,79.0,22.1,27.32,NNE,29,0.0,0.0,12,0.00,,---,0.00,VWS V14.01,2013-09-20 22:25:00,
2013-09-20 15:30:00,78.8,22.0,27.32,North,357,0.0,0.0,12,0.00,,---,0.00,VWS V14.01,2013-09-20 22:30:00,
2013-09-20 15:35:00,78.8,22.0,27.32,NE,50,0.0,0.0,12,0.00,,---,0.00,VWS V14.01,2013-09-20 22:35:00,
2013-09-20 15:40:00,80.1,22.9,27.32,East,93,0.0,0.0,12,0.00,,---,0.00,VWS V14.01,2013-09-20 22:40:00,
2013-09-20 15:45:00,81.1,23.8,27.29,NE,56,0.0,0.0,12,0.00,,---,0.00,VWS V14.01,2013-09-20 22:45:00,
2013-09-20 15:50:00,81.9,24.3,27.29,NE,43,0.0,0.0,12,0.00,,---,0.00,VWS V14.01,2013-09-20 22:50:00,
2013-09-20 15:55:00,82.0,24.5,27.29,NE,34,3.6,4.9,12,0.00,,---,0.00,VWS V14.01,2013-09-20 22:55:00,
2013-09-20 16:00:00,81.9,24.3,27.29,NNE,19,2.7,4.0,12,0.00,,---,0.00,VWS V14.01,2013-09-20 23:00:00,
2013-09-20 16:05:00,81.5,24.0,27.29,North,357,0.0,0.0,12,0.00,,---,0.00,VWS V14.01,2013-09-20 23:05:00,
2013-09-20 16:10:00,81.0,23.6,27.29,ENE,60,0.0,0.0,12,0.00,,---,0.00,VWS V14.01,2013-09-20 23:10:00,
2013-09-20 16:15:00,81.3,23.9,27.29,NE,44,0.0,0.0,12,0.00,,---,0.00,VWS V14.01,2013-09-20 23:15:00,
2013-09-20 16:20:00,80.4,23.2,27.29,NE,39,0.0,0.0,12,0.00,,---,0.00,VWS V14.01,2013-09-20 23:20:00,
2013-09-20 16:25:00,79.3,22.4,27.29,NNW,335,0.0,0.0,12,0.00,,---,0.00,VWS V14.01,2013-09-20 23:25:00,
2013-09-20 16:30:00,77.9,23.1,27.29,North,357,0.0,0.0,13,0.00,,---,0.00,VWS V14.01,2013-09-20 23:30:00,
2013-09-20 16:35:00,77.2,22.6,27.29,North,353,0.0,0.0,13,0.00,,---,0.00,VWS V14.01,2013-09-20 23:35:00,
2013-09-20 16:40:00,76.6,22.1,27.29,NNW,335,0.0,0.0,13,0.00,,---,0.00,VWS V14.01,2013-09-20 23:40:00,
2013-09-20 16:45:00,76.3,21.9,27.26,NNW,337,0.0,0.0,13,0.00,,---,0.00,VWS V14.01,2013-09-20 23:45:00,
2013-09-20 16:50:00,76.5,22.0,27.26,ENE,62,0.0,0.0,13,0.00,,---,0.00,VWS V14.01,2013-09-20 23:50:00,
2013-09-20 16:55:00,76.6,22.1,27.26,North,0,0.0,0.0,13,0.00,,---,0.00,VWS V14.01,2013-09-20 23:55:00,
2013-09-20 17:00:00,76.8,22.3,27.26,NNE,29,0.0,0.0,13,0.00,,---,0.00,VWS V14.01,2013-09-21 00:00:00,
2013-09-20 17:05:00,77.0,22.4,27.26,North,357,0.0,0.0,13,0.00,,---,0.00,VWS V14.01,2013-09-21 00:05:00,
2013-09-20 17:10:00,77.0,22.4,27.26,NNE,14,0.0,0.0,13,0.00,,---,0.00,VWS V14.01,2013-09-21 00:10:00,
2013-09-20 17:15:00,76.8,22.3,27.26,NNE,25,0.0,0.0,13,0.00,,---,0.00,VWS V14.01,2013-09-21 00:15:00,
2013-09-20 17:20:00,76.6,22.1,27.26,NNE,18,0.0,0.0,13,0.00,,---,0.00,VWS V14.01,2013-09-21 00:20:00,
2013-09-20 17:25:00,76.5,22.0,27.26,North,0,0.0,0.0,13,0.00,,---,0.00,VWS V14.01,2013-09-21 00:25:00,
2013-09-20 17:30:00,76.3,21.9,27.26,NNW,340,0.0,0.0,13,0.00,,---,0.00,VWS V14.01,2013-09-21 00:30:00,
2013-09-20 17:35:00,75.7,21.5,27.26,North,0,0.0,0.0,13,0.00,,---,0.00,VWS V14.01,2013-09-21 00:35:00,
2013-09-20 17:40:00,75.0,20.9,27.26,North,357,0.0,0.0,13,0.00,,---,0.00,VWS V14.01,2013-09-21 00:40:00,
2013-09-20 17:45:00,73.9,20.0,27.26,North,4,0.0,0.0,13,0.00,,---,0.00,VWS V14.01,2013-09-21 00:45:00,
2013-09-20 17:50:00,73.2,21.2,27.26,North,0,0.0,0.0,14,0.00,,---,0.00,VWS V14.01,2013-09-21 00:50:00,
2013-09-20 17:55:00,72.7,20.8,27.26,North,3,0.0,0.0,14,0.00,,---,0.00,VWS V14.01,2013-09-21 00:55:00,
2013-09-20 18:00:00,72.5,20.6,27.26,NNW,340,0.0,0.0,14,0.00,,---,0.00,VWS V14.01,2013-09-21 01:00:00,
2013-09-20 18:05:00,72.3,20.5,27.26,North,353,0.0,0.0,14,0.00,,---,0.00,VWS V14.01,2013-09-21 01:05:00,
2013-09-20 18:10:00,72.0,20.2,27.26,NNW,339,0.0,0.0,14,0.00,,---,0.00,VWS V14.01,2013-09-21 01:10:00,
2013-09-20 18:15:00,71.8,14.5,27.26,North,350,0.0,0.0,11,0.00,,---,0.00,VWS V14.01,2013-09-21 01:15:00,
2013-09-20 18:20:00,71.4,16.2,27.26,NNW,341,0.0,0.0,12,0.00,,---,0.00,VWS V14.01,2013-09-21 01:20:00,
2013-09-20 18:25:00,71.1,15.9,27.26,NNE,19,0.0,0.0,12,0.00,,---,0.00,VWS V14.01,2013-09-21 01:25:00,
2013-09-20 18:30:00,70.7,15.6,27.26,North,0,0.0,0.0,12,0.00,,---,0.00,VWS V14.01,2013-09-21 01:30:00,
2013-09-20 18:35:00,70.3,15.4,27.26,North,2,0.0,0.0,12,0.00,,---,0.00,VWS V14.01,2013-09-21 01:35:00,
2013-09-20 18:40:00,70.2,15.2,27.26,NNE,30,0.0,0.0,12,0.00,,---,0.00,VWS V14.01,2013-09-21 01:40:00,
2013-09-20 18:45:00,70.0,15.1,27.26,NE,35,0.0,0.0,12,0.00,,---,0.00,VWS V14.01,2013-09-21 01:45:00,
2013-09-20 18:50:00,69.8,14.9,27.26,NE,46,0.0,3.6,12,0.00,,---,0.00,VWS V14.01,2013-09-21 01:50:00,
2013-09-20 18:55:00,69.6,14.8,27.26,NE,37,3.1,3.1,12,0.00,,---,0.00,VWS V14.01,2013-09-21 01:55:00,
2013-09-20 19:00:00,69.4,14.6,27.26,NE,47,0.0,0.0,12,0.00,,---,0.00,VWS V14.01,2013-09-21 02:00:00,
2013-09-20 19:05:00,69.1,14.4,27.26,NE,47,0.0,0.0,12,0.00,,---,0.00,VWS V14.01,2013-09-21 02:05:00,
2013-09-20 19:10:00,68.9,14.2,27.26,NE,47,0.0,0.0,12,0.00,,---,0.00,VWS V14.01,2013-09-21 02:10:00,
2013-09-20 19:15:00,68.7,14.1,27.23,NNE,16,2.7,2.7,12,0.00,,---,0.00,VWS V14.01,2013-09-21 02:15:00,
2013-09-20 19:20:00,68.9,14.2,27.23,North,357,4.0,4.0,12,0.00,,---,0.00,VWS V14.01,2013-09-21 02:20:00,
2013-09-20 19:25:00,69.1,14.4,27.23,NNE,21,3.6,3.6,12,0.00,,---,0.00,VWS V14.01,2013-09-21 02:25:00,
2013-09-20 19:30:00,68.9,14.2,27.26,North,0,5.4,5.4,12,0.00,,---,0.00,VWS V14.01,2013-09-21 02:30:00,
2013-09-20 19:35:00,68.7,14.1,27.26,NNW,329,5.4,5.4,12,0.00,,---,0.00,VWS V14.01,2013-09-21 02:35:00,
2013-09-20 19:40:00,68.4,13.8,27.26,NNW,345,5.4,5.4,12,0.00,,---,0.00,VWS V14.01,2013-09-21 02:40:00,
2013-09-20 19:45:00,68.0,13.5,27.23,North,357,5.4,6.7,12,0.00,,---,0.00,VWS V14.01,2013-09-21 02:45:00,
2013-09-20 19:50:00,67.8,13.4,27.23,NNW,342,3.6,5.4,12,0.00,,---,0.00,VWS V14.01,2013-09-21 02:50:00,
2013-09-20 19:55:00,67.5,13.1,27.23,North,0,8.1,8.1,12,0.00,,---,0.00,VWS V14.01,2013-09-21 02:55:00,
2013-09-20 20:00:00,67.5,13.1,27.23,North,0,5.8,5.8,12,0.00,,---,0.00,VWS V14.01,2013-09-21 03:00:00,
2013-09-20 20:05:00,67.3,13.0,27.23,North,353,4.9,5.8,12,0.00,,---,0.00,VWS V14.01,2013-09-21 03:05:00,
2013-09-20 20:10:00,66.9,12.7,27.23,North,357,5.4,5.8,12,0.00,,---,0.00,VWS V14.01,2013-09-21 03:10:00,
2013-09-20 20:15:00,66.7,12.5,27.23,NNW,345,5.4,6.3,12,0.00,,---,0.00,VWS V14.01,2013-09-21 03:15:00,
2013-09-20 20:20:00,66.7,12.5,27.23,North,353,5.4,5.8,12,0.00,,---,0.00,VWS V14.01,2013-09-21 03:20:00,
2013-09-20 20:25:00,66.9,12.7,27.23,NE,39,4.0,4.0,12,0.00,,---,0.00,VWS V14.01,2013-09-21 03:25:00,
2013-09-20 20:30:00,66.7,12.5,27.23,NNE,14,4.0,4.9,12,0.00,,---,0.00,VWS V14.01,2013-09-21 03:30:00,
2013-09-20 20:35:00,66.4,12.3,27.23,NNE,19,3.1,3.6,12,0.00,,---,0.00,VWS V14.01,2013-09-21 03:35:00,
2013-09-20 20:40:00,66.0,13.8,27.23,NNE,16,2.7,2.7,13,0.00,,---,0.00,VWS V14.01,2013-09-21 03:40:00,
2013-09-20 20:45:00,65.8,13.6,27.23,North,0,3.6,4.0,13,0.00,,---,0.00,VWS V14.01,2013-09-21 03:45:00,
2013-09-20 20:50:00,65.7,13.5,27.23,North,357,4.0,5.4,13,0.00,,---,0.00,VWS V14.01,2013-09-21 03:50:00,
2013-09-20 20:55:00,65.7,13.5,27.23,North,353,8.1,8.1,13,0.00,,---,0.00,VWS V14.01,2013-09-21 03:55:00,
2013-09-20 21:00:00,65.8,13.6,27.23,NNW,346,5.4,7.6,13,0.00,,---,0.00,VWS V14.01,2013-09-21 04:00:00,
2013-09-20 21:01:00,65.8,13.6,27.23,NNW,336,8.1,8.1,13,0.00,,---,0.00,VWS V14.01,2013-09-21 04:01:00,
2013-09-20 21:06:00,65.7,13.5,27.23,North,0,5.4,6.3,13,0.00,,---,0.00,VWS V14.01,2013-09-21 04:06:00,
2013-09-20 21:11:00,65.7,13.5,27.23,NNW,341,8.1,10.1,13,0.00,,---,0.00,VWS V14.01,2013-09-21 04:11:00,
2013-09-20 21:16:00,65.5,13.4,27.23,NNW,342,3.1,5.4,13,0.00,,---,0.00,VWS V14.01,2013-09-21 04:16:00,
2013-09-20 21:21:00,65.3,13.2,27.23,NNE,21,3.1,5.8,13,0.00,,---,0.00,VWS V14.01,2013-09-21 04:21:00,
2013-09-20 21:26:00,64.9,12.9,27.23,North,1,0.0,0.0,13,0.00,,---,0.00,VWS V14.01,2013-09-21 04:26:00,
2013-09-20 21:31:00,64.8,12.8,27.23,North,9,0.0,0.0,13,0.00,,---,0.00,VWS V14.01,2013-09-21 04:31:00,
2013-09-20 21:36:00,64.4,12.5,27.23,North,3,0.0,0.0,13,0.00,,---,0.00,VWS V14.01,2013-09-21 04:36:00,
2013-09-20 21:41:00,64.0,12.2,27.23,North,0,0.0,0.0,13,0.00,,---,0.00,VWS V14.01,2013-09-21 04:41:00,
2013-09-20 21:46:00,63.7,11.9,27.23,North,357,0.0,0.0,13,0.00,,---,0.00,VWS V14.01,2013-09-21 04:46:00,
2013-09-20 21:51:00,63.3,11.7,27.23,North,0,0.0,0.0,13,0.00,,---,0.00,VWS V14.01,2013-09-21 04:51:00,
2013-09-20 21:56:00,63.1,11.5,27.23,NNE,20,0.0,0.0,13,0.00,,---,0.00,VWS V14.01,2013-09-21 04:56:00,
2013-09-20 22:01:00,63.0,11.4,27.23,North,353,0.0,0.0,13,0.00,,---,0.00,VWS V14.01,2013-09-21 05:01:00,
2013-09-20 22:06:00,63.0,11.4,27.23,North,353,0.0,0.0,13,0.00,,---,0.00,VWS V14.01,2013-09-21 05:06:00,
2013-09-20 22:11:00,63.1,11.5,27.23,North,353,0.0,0.0,13,0.00,,---,0.00,VWS V14.01,2013-09-21 05:11:00,
2013-09-20 22:16:00,63.3,11.7,27.23,North,2,0.0,0.0,13,0.00,,---,0.00,VWS V14.01,2013-09-21 05:16:00,
2013-09-20 22:21:00,63.5,11.8,27.23,North,0,0.0,0.0,13,0.00,,---,0.00,VWS V14.01,2013-09-21 05:21:00,
2013-09-20 22:26:00,63.3,11.7,27.23,North,0,0.0,0.0,13,0.00,,---,0.00,VWS V14.01,2013-09-21 05:26:00,
2013-09-20 22:31:00,63.1,11.5,27.23,NNW,343,0.0,0.0,13,0.00,,---,0.00,VWS V14.01,2013-09-21 05:31:00,
2013-09-20 22:36:00,63.0,11.4,27.23,NNE,12,0.0,0.0,13,0.00,,---,0.00,VWS V14.01,2013-09-21 05:36:00,
2013-09-20 22:41:00,63.0,11.4,27.23,NNE,21,0.0,0.0,13,0.00,,---,0.00,VWS V14.01,2013-09-21 05:41:00,
2013-09-20 22:46:00,63.0,11.4,27.20,NNW,346,0.0,0.0,13,0.00,,---,0.00,VWS V14.01,2013-09-21 05:46:00,
2013-09-20 22:51:00,62.8,11.2,27.20,North,353,0.0,0.0,13,0.00,,---,0.00,VWS V14.01,2013-09-21 05:51:00,
2013-09-20 22:56:00,62.6,11.1,27.20,NNW,342,0.0,0.0,13,0.00,,---,0.00,VWS V14.01,2013-09-21 05:56:00,
2013-09-20 23:01:00,62.6,11.1,27.20,North,357,0.0,0.0,13,0.00,,---,0.00,VWS V14.01,2013-09-21 06:01:00,
2013-09-20 23:06:00,62.4,12.6,27.20,NNW,343,0.0,0.0,14,0.00,,---,0.00,VWS V14.01,2013-09-21 06:06:00,
2013-09-20 23:11:00,62.6,11.1,27.20,North,353,0.0,0.0,13,0.00,,---,0.00,VWS V14.01,2013-09-21 06:11:00,
2013-09-20 23:16:00,62.6,11.1,27.20,NNW,343,0.0,0.0,13,0.00,,---,0.00,VWS V14.01,2013-09-21 06:16:00,
2013-09-20 23:21:00,62.8,11.2,27.20,North,353,0.0,0.0,13,0.00,,---,0.00,VWS V14.01,2013-09-21 06:21:00,
2013-09-20 23:26:00,63.0,11.4,27.20,NNW,340,0.0,0.0,13,0.00,,---,0.00,VWS V14.01,2013-09-21 06:26:00,
2013-09-20 23:31:00,63.1,11.5,27.20,North,0,0.0,0.0,13,0.00,,---,0.00,VWS V14.01,2013-09-21 06:31:00,
2013-09-20 23:36:00,62.8,11.2,27.20,North,350,0.0,0.0,13,0.00,,---,0.00,VWS V14.01,2013-09-21 06:36:00,
2013-09-20 23:41:00,61.9,12.2,27.20,West,275,0.0,0.0,14,0.00,,---,0.00,VWS V14.01,2013-09-21 06:41:00,
2013-09-20 23:46:00,61.3,11.8,27.20,NNW,329,0.0,0.0,14,0.00,,---,0.00,VWS V14.01,2013-09-21 06:46:00,
2013-09-20 23:51:00,61.0,11.5,27.20,NNW,328,0.0,0.0,14,0.00,,---,0.00,VWS V14.01,2013-09-21 06:51:00,
2013-09-20 23:56:00,60.3,10.9,27.20,WSW,257,0.0,0.0,14,0.00,,---,0.00,VWS V14.01,2013-09-21 06:56:00,